Flight Briefing for CPX262

Departure Arrival
General Edward Lawrence Logan International Airport (KBOS)
Click to view FAA NOTAMS
Kansas City International Airport (KMCI)
Click to view FAA NOTAMS
Departure Time Arrival Time
N/A N/A
Aircraft Distance
B767-300BDSF 1090nm
Departure METAR Arrival METAR
KBOS 250254Z 09003KT 10SM SCT055 12/06 A3012 RMK AO2 SLP199 T01220056 50023 $ KMCI 250308Z 15019G28KT 10SM SCT065 BKN100 OVC120 18/18 A2988 RMK AO2 PK WND 16028/0302 LTG DSNT NE-S RAE0255 P0000 T01830183 $
Suggested Route
HYLND5 HYLND CAM Q822 GONZZ Q29 DORET DJB J60 JOT J26 IRK BQS6


View recent IFR Routes data
Notes
METROAIR CARGO SUPPORT

Charts and Procedures

Charts for KBOS
No chart available
Charts for KMCI
No chart available

Windy.com Weather Map